Aviation Digital Data Service (ADDS)

Output produced by METARs form (0557 UTC 01 October 2014)
found at http://aviationweather.gov/adds/metars/
 
KSSI 010541Z 0106/0206 01003KT P6SM SCT050 
     FM011400 03006KT P6SM BKN035 
     FM011800 06010KT P6SM BKN050